sensor_id;sensor_type;location;lat;lon;timestamp;temperature;humidity
47546;DHT22;50104;52.002;4.688;2022-07-23T00:01:43;17.90;72.30
47546;DHT22;50104;52.002;4.688;2022-07-23T00:06:44;17.80;72.40
47546;DHT22;50104;52.002;4.688;2022-07-23T00:11:45;17.80;72.60
47546;DHT22;50104;52.002;4.688;2022-07-23T00:16:45;17.70;72.80
47546;DHT22;50104;52.002;4.688;2022-07-23T00:21:46;17.60;73.00
47546;DHT22;50104;52.002;4.688;2022-07-23T00:26:47;17.60;73.20
47546;DHT22;50104;52.002;4.688;2022-07-23T00:31:48;17.50;73.60
47546;DHT22;50104;52.002;4.688;2022-07-23T00:36:49;17.50;73.70
47546;DHT22;50104;52.002;4.688;2022-07-23T00:41:51;17.40;73.70
47546;DHT22;50104;52.002;4.688;2022-07-23T00:46:55;17.40;73.90
47546;DHT22;50104;52.002;4.688;2022-07-23T00:51:58;17.30;74.10
47546;DHT22;50104;52.002;4.688;2022-07-23T00:57:02;17.20;74.10
47546;DHT22;50104;52.002;4.688;2022-07-23T01:02:03;17.20;74.30
47546;DHT22;50104;52.002;4.688;2022-07-23T01:07:05;17.10;74.20
47546;DHT22;50104;52.002;4.688;2022-07-23T01:12:06;17.10;74.50
47546;DHT22;50104;52.002;4.688;2022-07-23T01:17:08;17.00;74.80
47546;DHT22;50104;52.002;4.688;2022-07-23T01:22:10;16.90;74.80
47546;DHT22;50104;52.002;4.688;2022-07-23T01:27:11;16.90;75.00
47546;DHT22;50104;52.002;4.688;2022-07-23T01:32:13;16.80;75.10
47546;DHT22;50104;52.002;4.688;2022-07-23T01:37:14;16.70;75.40
47546;DHT22;50104;52.002;4.688;2022-07-23T01:42:14;16.70;75.40
47546;DHT22;50104;52.002;4.688;2022-07-23T01:47:15;16.60;75.40
47546;DHT22;50104;52.002;4.688;2022-07-23T01:52:16;16.60;75.60
47546;DHT22;50104;52.002;4.688;2022-07-23T01:57:17;16.50;75.80
47546;DHT22;50104;52.002;4.688;2022-07-23T02:02:18;16.40;75.90
47546;DHT22;50104;52.002;4.688;2022-07-23T02:07:18;16.40;76.20
47546;DHT22;50104;52.002;4.688;2022-07-23T02:12:19;16.30;76.10
47546;DHT22;50104;52.002;4.688;2022-07-23T02:17:20;16.30;76.10
47546;DHT22;50104;52.002;4.688;2022-07-23T02:22:21;16.20;76.20
47546;DHT22;50104;52.002;4.688;2022-07-23T02:27:22;16.20;76.50
47546;DHT22;50104;52.002;4.688;2022-07-23T02:32:24;16.10;76.50
47546;DHT22;50104;52.002;4.688;2022-07-23T02:37:25;16.10;76.60
47546;DHT22;50104;52.002;4.688;2022-07-23T02:42:26;16.00;76.80
47546;DHT22;50104;52.002;4.688;2022-07-23T02:47:27;16.00;76.80
47546;DHT22;50104;52.002;4.688;2022-07-23T02:52:28;15.90;76.90
47546;DHT22;50104;52.002;4.688;2022-07-23T02:57:28;15.90;77.00
47546;DHT22;50104;52.002;4.688;2022-07-23T03:02:29;15.90;77.10
47546;DHT22;50104;52.002;4.688;2022-07-23T03:07:30;15.80;77.00
47546;DHT22;50104;52.002;4.688;2022-07-23T03:12:31;15.80;76.90
47546;DHT22;50104;52.002;4.688;2022-07-23T03:17:31;15.80;77.30
47546;DHT22;50104;52.002;4.688;2022-07-23T03:22:32;15.80;77.20
47546;DHT22;50104;52.002;4.688;2022-07-23T03:27:33;15.70;77.50
47546;DHT22;50104;52.002;4.688;2022-07-23T03:32:34;15.70;77.70
47546;DHT22;50104;52.002;4.688;2022-07-23T03:37:35;15.70;77.50
47546;DHT22;50104;52.002;4.688;2022-07-23T03:42:36;15.70;77.80
47546;DHT22;50104;52.002;4.688;2022-07-23T03:47:37;15.60;77.90
47546;DHT22;50104;52.002;4.688;2022-07-23T03:52:39;15.60;77.80
47546;DHT22;50104;52.002;4.688;2022-07-23T03:57:40;15.60;77.80
47546;DHT22;50104;52.002;4.688;2022-07-23T04:02:41;15.50;77.70
47546;DHT22;50104;52.002;4.688;2022-07-23T04:07:42;15.50;77.70
47546;DHT22;50104;52.002;4.688;2022-07-23T04:12:42;15.50;77.80
47546;DHT22;50104;52.002;4.688;2022-07-23T04:17:43;15.40;77.70
47546;DHT22;50104;52.002;4.688;2022-07-23T04:22:45;15.40;77.70
47546;DHT22;50104;52.002;4.688;2022-07-23T04:27:46;15.40;78.00
47546;DHT22;50104;52.002;4.688;2022-07-23T04:32:46;15.40;78.00
47546;DHT22;50104;52.002;4.688;2022-07-23T04:37:47;15.30;78.10
47546;DHT22;50104;52.002;4.688;2022-07-23T04:42:48;15.30;78.40
47546;DHT22;50104;52.002;4.688;2022-07-23T04:47:49;15.30;78.60
47546;DHT22;50104;52.002;4.688;2022-07-23T04:53:11;15.30;78.80
47546;DHT22;50104;52.002;4.688;2022-07-23T04:58:12;15.30;79.00
47546;DHT22;50104;52.002;4.688;2022-07-23T05:03:13;15.40;79.00
47546;DHT22;50104;52.002;4.688;2022-07-23T05:08:14;15.40;79.00
47546;DHT22;50104;52.002;4.688;2022-07-23T05:13:16;15.40;79.20
47546;DHT22;50104;52.002;4.688;2022-07-23T05:18:17;15.50;79.10
47546;DHT22;50104;52.002;4.688;2022-07-23T05:23:17;15.50;79.10
47546;DHT22;50104;52.002;4.688;2022-07-23T05:28:18;15.60;78.80
47546;DHT22;50104;52.002;4.688;2022-07-23T05:33:20;15.60;79.00
47546;DHT22;50104;52.002;4.688;2022-07-23T05:38:21;15.70;78.90
47546;DHT22;50104;52.002;4.688;2022-07-23T05:43:21;15.70;78.80
47546;DHT22;50104;52.002;4.688;2022-07-23T05:48:22;15.80;79.20
47546;DHT22;50104;52.002;4.688;2022-07-23T05:53:23;15.80;78.90
47546;DHT22;50104;52.002;4.688;2022-07-23T05:58:24;15.90;78.70
47546;DHT22;50104;52.002;4.688;2022-07-23T06:03:25;16.00;78.40
47546;DHT22;50104;52.002;4.688;2022-07-23T06:08:26;16.00;78.40
47546;DHT22;50104;52.002;4.688;2022-07-23T06:13:27;16.10;78.30
47546;DHT22;50104;52.002;4.688;2022-07-23T06:18:28;16.20;78.40
47546;DHT22;50104;52.002;4.688;2022-07-23T06:23:29;16.30;78.40
47546;DHT22;50104;52.002;4.688;2022-07-23T06:28:30;16.40;78.70
47546;DHT22;50104;52.002;4.688;2022-07-23T06:33:31;16.50;79.10
47546;DHT22;50104;52.002;4.688;2022-07-23T06:38:32;16.60;79.40
47546;DHT22;50104;52.002;4.688;2022-07-23T06:43:33;16.80;79.70
47546;DHT22;50104;52.002;4.688;2022-07-23T06:48:33;17.00;80.30
47546;DHT22;50104;52.002;4.688;2022-07-23T06:53:36;17.30;81.20
47546;DHT22;50104;52.002;4.688;2022-07-23T06:58:37;17.70;80.60
47546;DHT22;50104;52.002;4.688;2022-07-23T07:03:37;18.20;79.00
47546;DHT22;50104;52.002;4.688;2022-07-23T07:08:38;18.70;76.80
47546;DHT22;50104;52.002;4.688;2022-07-23T07:13:39;19.20;75.90
47546;DHT22;50104;52.002;4.688;2022-07-23T07:18:40;19.70;74.00
47546;DHT22;50104;52.002;4.688;2022-07-23T07:23:41;20.10;73.20
47546;DHT22;50104;52.002;4.688;2022-07-23T07:28:42;20.50;71.80
47546;DHT22;50104;52.002;4.688;2022-07-23T07:33:43;20.90;70.40
47546;DHT22;50104;52.002;4.688;2022-07-23T07:38:43;21.20;69.70
47546;DHT22;50104;52.002;4.688;2022-07-23T07:43:44;21.60;69.30
47546;DHT22;50104;52.002;4.688;2022-07-23T07:48:45;21.90;68.30
47546;DHT22;50104;52.002;4.688;2022-07-23T07:53:46;22.30;67.40
47546;DHT22;50104;52.002;4.688;2022-07-23T07:58:47;22.60;66.60
47546;DHT22;50104;52.002;4.688;2022-07-23T08:03:48;22.80;65.20
47546;DHT22;50104;52.002;4.688;2022-07-23T08:08:48;23.00;65.20
47546;DHT22;50104;52.002;4.688;2022-07-23T08:13:49;23.20;64.30
47546;DHT22;50104;52.002;4.688;2022-07-23T08:18:50;23.30;63.40
47546;DHT22;50104;52.002;4.688;2022-07-23T08:23:51;23.30;63.90
47546;DHT22;50104;52.002;4.688;2022-07-23T08:28:52;23.40;63.80
47546;DHT22;50104;52.002;4.688;2022-07-23T08:33:52;23.50;63.20
47546;DHT22;50104;52.002;4.688;2022-07-23T08:38:54;23.60;62.90
47546;DHT22;50104;52.002;4.688;2022-07-23T08:43:55;23.60;63.20
47546;DHT22;50104;52.002;4.688;2022-07-23T08:48:57;23.70;63.70
47546;DHT22;50104;52.002;4.688;2022-07-23T08:53:58;23.90;64.20
47546;DHT22;50104;52.002;4.688;2022-07-23T08:58:59;24.00;63.40
47546;DHT22;50104;52.002;4.688;2022-07-23T09:04:01;24.10;63.80
47546;DHT22;50104;52.002;4.688;2022-07-23T09:09:19;24.30;63.70
47546;DHT22;50104;52.002;4.688;2022-07-23T09:14:36;24.40;63.60
47546;DHT22;50104;52.002;4.688;2022-07-23T09:19:48;24.60;63.50
47546;DHT22;50104;52.002;4.688;2022-07-23T09:25:10;24.70;63.00
47546;DHT22;50104;52.002;4.688;2022-07-23T09:30:12;24.80;62.40
47546;DHT22;50104;52.002;4.688;2022-07-23T09:35:13;24.90;62.10
47546;DHT22;50104;52.002;4.688;2022-07-23T09:40:14;25.10;62.00
47546;DHT22;50104;52.002;4.688;2022-07-23T09:45:18;25.30;62.20
47546;DHT22;50104;52.002;4.688;2022-07-23T09:50:20;25.40;61.90
47546;DHT22;50104;52.002;4.688;2022-07-23T09:55:32;25.60;61.50
47546;DHT22;50104;52.002;4.688;2022-07-23T10:00:40;25.80;61.40
47546;DHT22;50104;52.002;4.688;2022-07-23T10:05:44;26.00;60.30
47546;DHT22;50104;52.002;4.688;2022-07-23T10:10:49;26.10;60.00
47546;DHT22;50104;52.002;4.688;2022-07-23T10:15:51;26.30;60.00
47546;DHT22;50104;52.002;4.688;2022-07-23T10:20:52;26.50;59.50
47546;DHT22;50104;52.002;4.688;2022-07-23T10:36:53;27.10;58.40
47546;DHT22;50104;52.002;4.688;2022-07-23T10:42:11;27.30;60.30
47546;DHT22;50104;52.002;4.688;2022-07-23T10:47:28;27.60;58.90
47546;DHT22;50104;52.002;4.688;2022-07-23T10:52:35;27.80;58.10
47546;DHT22;50104;52.002;4.688;2022-07-23T10:57:48;28.00;58.30
47546;DHT22;50104;52.002;4.688;2022-07-23T11:02:53;28.10;57.20
47546;DHT22;50104;52.002;4.688;2022-07-23T11:23:58;28.50;55.10
47546;DHT22;50104;52.002;4.688;2022-07-23T11:34:40;28.80;54.20
47546;DHT22;50104;52.002;4.688;2022-07-23T11:39:46;28.90;53.80
47546;DHT22;50104;52.002;4.688;2022-07-23T11:44:47;29.00;53.60
47546;DHT22;50104;52.002;4.688;2022-07-23T11:49:56;29.20;52.30
47546;DHT22;50104;52.002;4.688;2022-07-23T11:55:02;29.40;52.00
47546;DHT22;50104;52.002;4.688;2022-07-23T12:00:12;29.60;52.20
47546;DHT22;50104;52.002;4.688;2022-07-23T12:05:26;29.80;51.90
47546;DHT22;50104;52.002;4.688;2022-07-23T12:10:43;30.10;50.60
47546;DHT22;50104;52.002;4.688;2022-07-23T12:15:53;30.30;50.70
47546;DHT22;50104;52.002;4.688;2022-07-23T12:20:57;30.50;49.70
47546;DHT22;50104;52.002;4.688;2022-07-23T12:26:04;30.70;49.70
47546;DHT22;50104;52.002;4.688;2022-07-23T12:31:07;30.80;49.40
47546;DHT22;50104;52.002;4.688;2022-07-23T12:36:09;31.00;49.20
47546;DHT22;50104;52.002;4.688;2022-07-23T12:41:11;31.20;48.60
47546;DHT22;50104;52.002;4.688;2022-07-23T12:46:19;31.40;49.10
47546;DHT22;50104;52.002;4.688;2022-07-23T12:51:29;31.50;48.10
47546;DHT22;50104;52.002;4.688;2022-07-23T12:56:37;31.70;47.60
47546;DHT22;50104;52.002;4.688;2022-07-23T13:01:54;31.80;47.60
47546;DHT22;50104;52.002;4.688;2022-07-23T13:06:59;31.90;47.40
47546;DHT22;50104;52.002;4.688;2022-07-23T13:12:04;32.10;48.00
47546;DHT22;50104;52.002;4.688;2022-07-23T13:17:04;32.20;48.10
47546;DHT22;50104;52.002;4.688;2022-07-23T13:22:05;32.40;47.40
47546;DHT22;50104;52.002;4.688;2022-07-23T13:27:06;32.60;46.90
47546;DHT22;50104;52.002;4.688;2022-07-23T13:32:08;32.70;47.20
47546;DHT22;50104;52.002;4.688;2022-07-23T13:37:09;32.80;47.10
47546;DHT22;50104;52.002;4.688;2022-07-23T13:42:10;32.80;46.00
47546;DHT22;50104;52.002;4.688;2022-07-23T13:47:10;32.90;46.20
47546;DHT22;50104;52.002;4.688;2022-07-23T13:52:11;32.80;47.20
47546;DHT22;50104;52.002;4.688;2022-07-23T13:57:12;32.80;46.40
47546;DHT22;50104;52.002;4.688;2022-07-23T14:02:15;32.90;46.70
47546;DHT22;50104;52.002;4.688;2022-07-23T14:07:18;32.90;47.20
47546;DHT22;50104;52.002;4.688;2022-07-23T14:12:19;33.00;45.90
47546;DHT22;50104;52.002;4.688;2022-07-23T14:17:20;33.10;45.00
47546;DHT22;50104;52.002;4.688;2022-07-23T14:22:21;33.10;46.10
47546;DHT22;50104;52.002;4.688;2022-07-23T14:27:22;33.20;45.60
47546;DHT22;50104;52.002;4.688;2022-07-23T14:32:23;33.20;45.80
47546;DHT22;50104;52.002;4.688;2022-07-23T14:37:24;33.10;45.90
47546;DHT22;50104;52.002;4.688;2022-07-23T14:42:25;33.00;46.10
47546;DHT22;50104;52.002;4.688;2022-07-23T14:47:26;33.00;45.80
47546;DHT22;50104;52.002;4.688;2022-07-23T14:52:27;32.90;45.70
47546;DHT22;50104;52.002;4.688;2022-07-23T14:57:28;32.90;45.80
47546;DHT22;50104;52.002;4.688;2022-07-23T15:02:30;32.90;45.70
47546;DHT22;50104;52.002;4.688;2022-07-23T15:07:30;32.90;45.80
47546;DHT22;50104;52.002;4.688;2022-07-23T15:12:31;32.80;45.60
47546;DHT22;50104;52.002;4.688;2022-07-23T15:17:33;32.60;46.00
47546;DHT22;50104;52.002;4.688;2022-07-23T15:22:33;32.60;45.50
47546;DHT22;50104;52.002;4.688;2022-07-23T15:27:34;32.50;44.90
47546;DHT22;50104;52.002;4.688;2022-07-23T15:32:35;32.50;46.70
47546;DHT22;50104;52.002;4.688;2022-07-23T15:37:36;32.40;46.10
47546;DHT22;50104;52.002;4.688;2022-07-23T15:42:36;32.40;47.10
47546;DHT22;50104;52.002;4.688;2022-07-23T15:47:37;32.40;48.20
47546;DHT22;50104;52.002;4.688;2022-07-23T15:52:40;32.50;47.60
47546;DHT22;50104;52.002;4.688;2022-07-23T15:57:41;32.50;49.40
47546;DHT22;50104;52.002;4.688;2022-07-23T16:02:42;32.60;49.90
47546;DHT22;50104;52.002;4.688;2022-07-23T16:07:43;32.70;49.10
47546;DHT22;50104;52.002;4.688;2022-07-23T16:12:44;32.70;48.50
47546;DHT22;50104;52.002;4.688;2022-07-23T16:17:45;32.80;48.00
47546;DHT22;50104;52.002;4.688;2022-07-23T16:22:46;32.80;47.10
47546;DHT22;50104;52.002;4.688;2022-07-23T16:27:47;32.90;46.70
47546;DHT22;50104;52.002;4.688;2022-07-23T16:32:47;32.90;44.80
47546;DHT22;50104;52.002;4.688;2022-07-23T16:37:48;32.90;48.00
47546;DHT22;50104;52.002;4.688;2022-07-23T16:42:49;32.80;45.00
47546;DHT22;50104;52.002;4.688;2022-07-23T16:47:50;32.80;45.40
47546;DHT22;50104;52.002;4.688;2022-07-23T16:52:51;32.80;45.60
47546;DHT22;50104;52.002;4.688;2022-07-23T16:57:52;32.80;45.50
47546;DHT22;50104;52.002;4.688;2022-07-23T17:02:53;32.80;45.70
47546;DHT22;50104;52.002;4.688;2022-07-23T17:07:54;32.80;46.90
47546;DHT22;50104;52.002;4.688;2022-07-23T17:12:55;32.80;47.00
47546;DHT22;50104;52.002;4.688;2022-07-23T17:17:58;32.70;47.70
47546;DHT22;50104;52.002;4.688;2022-07-23T17:22:59;32.70;47.50
47546;DHT22;50104;52.002;4.688;2022-07-23T17:27:59;32.60;48.10
47546;DHT22;50104;52.002;4.688;2022-07-23T17:33:03;32.50;48.10
47546;DHT22;50104;52.002;4.688;2022-07-23T17:38:04;32.40;48.10
47546;DHT22;50104;52.002;4.688;2022-07-23T17:43:05;32.40;47.80
47546;DHT22;50104;52.002;4.688;2022-07-23T17:48:06;32.30;48.00
47546;DHT22;50104;52.002;4.688;2022-07-23T17:53:06;32.20;48.30
47546;DHT22;50104;52.002;4.688;2022-07-23T17:58:07;32.10;48.20
47546;DHT22;50104;52.002;4.688;2022-07-23T18:03:08;31.90;47.80
47546;DHT22;50104;52.002;4.688;2022-07-23T18:08:09;31.80;48.30
47546;DHT22;50104;52.002;4.688;2022-07-23T18:13:10;31.60;48.40
47546;DHT22;50104;52.002;4.688;2022-07-23T18:18:10;31.50;48.70
47546;DHT22;50104;52.002;4.688;2022-07-23T18:23:11;31.30;48.80
47546;DHT22;50104;52.002;4.688;2022-07-23T18:28:12;31.10;49.00
47546;DHT22;50104;52.002;4.688;2022-07-23T18:33:13;30.80;49.10
47546;DHT22;50104;52.002;4.688;2022-07-23T18:38:15;30.60;49.30
47546;DHT22;50104;52.002;4.688;2022-07-23T18:43:17;30.30;49.60
47546;DHT22;50104;52.002;4.688;2022-07-23T18:48:18;30.10;49.90
47546;DHT22;50104;52.002;4.688;2022-07-23T18:53:19;29.80;50.10
47546;DHT22;50104;52.002;4.688;2022-07-23T18:58:20;29.60;50.50
47546;DHT22;50104;52.002;4.688;2022-07-23T19:03:20;29.40;50.90
47546;DHT22;50104;52.002;4.688;2022-07-23T19:08:21;29.10;51.30
47546;DHT22;50104;52.002;4.688;2022-07-23T19:13:22;28.90;51.70
47546;DHT22;50104;52.002;4.688;2022-07-23T19:18:23;28.70;52.10
47546;DHT22;50104;52.002;4.688;2022-07-23T19:23:24;28.50;52.60
47546;DHT22;50104;52.002;4.688;2022-07-23T19:28:25;28.20;53.00
47546;DHT22;50104;52.002;4.688;2022-07-23T19:33:27;28.00;53.50
47546;DHT22;50104;52.002;4.688;2022-07-23T19:38:27;27.80;53.90
47546;DHT22;50104;52.002;4.688;2022-07-23T19:43:28;27.60;54.40
47546;DHT22;50104;52.002;4.688;2022-07-23T19:48:29;27.40;54.70
47546;DHT22;50104;52.002;4.688;2022-07-23T19:53:30;27.20;55.20
47546;DHT22;50104;52.002;4.688;2022-07-23T19:58:31;27.00;55.70
47546;DHT22;50104;52.002;4.688;2022-07-23T20:03:32;26.80;56.40
47546;DHT22;50104;52.002;4.688;2022-07-23T20:08:33;26.60;56.90
47546;DHT22;50104;52.002;4.688;2022-07-23T20:13:34;26.50;57.40
47546;DHT22;50104;52.002;4.688;2022-07-23T20:18:35;26.30;57.70
47546;DHT22;50104;52.002;4.688;2022-07-23T20:23:35;26.10;58.00
47546;DHT22;50104;52.002;4.688;2022-07-23T20:28:36;26.00;58.20
47546;DHT22;50104;52.002;4.688;2022-07-23T20:33:37;25.80;58.40
47546;DHT22;50104;52.002;4.688;2022-07-23T20:38:38;25.70;58.60
47546;DHT22;50104;52.002;4.688;2022-07-23T20:43:39;25.50;59.20
47546;DHT22;50104;52.002;4.688;2022-07-23T20:48:40;25.40;59.40
47546;DHT22;50104;52.002;4.688;2022-07-23T20:53:41;25.20;59.70
47546;DHT22;50104;52.002;4.688;2022-07-23T20:58:42;25.10;59.80
47546;DHT22;50104;52.002;4.688;2022-07-23T21:03:44;25.00;60.30
47546;DHT22;50104;52.002;4.688;2022-07-23T21:08:44;24.80;60.80
47546;DHT22;50104;52.002;4.688;2022-07-23T21:13:45;24.70;60.90
47546;DHT22;50104;52.002;4.688;2022-07-23T21:18:47;24.60;61.60
47546;DHT22;50104;52.002;4.688;2022-07-23T21:23:49;24.40;61.80
47546;DHT22;50104;52.002;4.688;2022-07-23T21:28:52;24.30;61.80
47546;DHT22;50104;52.002;4.688;2022-07-23T21:33:52;24.20;62.10
47546;DHT22;50104;52.002;4.688;2022-07-23T21:38:54;24.10;62.40
47546;DHT22;50104;52.002;4.688;2022-07-23T21:43:56;23.90;62.40
47546;DHT22;50104;52.002;4.688;2022-07-23T21:48:57;23.80;62.40
47546;DHT22;50104;52.002;4.688;2022-07-23T21:53:58;23.70;62.50
47546;DHT22;50104;52.002;4.688;2022-07-23T21:58:59;23.60;62.80
47546;DHT22;50104;52.002;4.688;2022-07-23T22:04:00;23.50;62.80
47546;DHT22;50104;52.002;4.688;2022-07-23T22:09:00;23.40;63.40
47546;DHT22;50104;52.002;4.688;2022-07-23T22:14:01;23.30;63.70
47546;DHT22;50104;52.002;4.688;2022-07-23T22:19:03;23.20;63.80
47546;DHT22;50104;52.002;4.688;2022-07-23T22:24:04;23.10;63.90
47546;DHT22;50104;52.002;4.688;2022-07-23T22:29:05;23.00;63.80
47546;DHT22;50104;52.002;4.688;2022-07-23T22:34:06;22.90;64.00
47546;DHT22;50104;52.002;4.688;2022-07-23T22:39:07;22.80;64.20
47546;DHT22;50104;52.002;4.688;2022-07-23T22:44:08;22.70;64.40
47546;DHT22;50104;52.002;4.688;2022-07-23T22:49:09;22.70;64.40
47546;DHT22;50104;52.002;4.688;2022-07-23T22:54:10;22.60;64.50
47546;DHT22;50104;52.002;4.688;2022-07-23T22:59:10;22.50;64.50
47546;DHT22;50104;52.002;4.688;2022-07-23T23:04:12;22.40;65.40
47546;DHT22;50104;52.002;4.688;2022-07-23T23:09:13;22.30;66.10
47546;DHT22;50104;52.002;4.688;2022-07-23T23:14:15;22.20;66.50
47546;DHT22;50104;52.002;4.688;2022-07-23T23:19:17;22.00;66.80
47546;DHT22;50104;52.002;4.688;2022-07-23T23:24:18;22.00;66.80
47546;DHT22;50104;52.002;4.688;2022-07-23T23:29:19;21.90;67.30
47546;DHT22;50104;52.002;4.688;2022-07-23T23:34:20;21.80;67.50
47546;DHT22;50104;52.002;4.688;2022-07-23T23:39:21;21.70;67.60
47546;DHT22;50104;52.002;4.688;2022-07-23T23:44:22;21.60;67.80
47546;DHT22;50104;52.002;4.688;2022-07-23T23:49:22;21.50;68.60
47546;DHT22;50104;52.002;4.688;2022-07-23T23:54:23;21.40;68.90
47546;DHT22;50104;52.002;4.688;2022-07-23T23:59:24;21.30;68.80
